ブラチスラヴァ の空港の天気 - METARとTAF

ブラチスラヴァ空港 ( LZIB / BTS ) - スロバキア ブラチスラヴァ
飛行場実況気象(Metar)
観測時間04/24 19:00 CEST (04/24 17:00 UTC)
風向・風速南南東 7m/s
視程10km以上
天気現象
なし
気温22℃
湿度50%
気圧1012hPa
METARLZIB 241700Z 16013KT CAVOK 22/11 Q1012 NOSIG
過去の天気等 Google飛行場航空写真 Wunderground天気予報

過去48時間のMETAR

飛行場予報(TAF)
発表時間: 4/24 13:00 CEST (4/24 11:00 UTC)
予報対象時間: 24日14時 CEST ~ 25日14時 CEST
風向・風速東南東 6m/s
視程10km以上
少しの雲 雲底高度 1070m
全天の8割程度の雲 雲底高度 1520m
24日14時 CEST ~ 24日22時 CEST に一時的に
風向・風速南南東 9m/s
24日16時 CEST ~ 24日18時 CEST に徐々に
視程10km以上
なし
24日22時 CEST ~ 24日24時 CEST に徐々に
風向・風速南 5m/s
TAF LZIB 241100Z 2412/2512 12012KT 9999 FEW035 BKN050
TEMPO 2412/2420 15018KT
BECMG 2414/2416 CAVOK
BECMG 2420/2422 17010KT